< < Back
Terminal Aerodrome Forecast


Current Version              Previous Versions:   1  2  3  4  5  6  7  8  9  

Terminal Aerodrome Forecast

638
FTUS42 KCAE 251100 RRA
TAFAGS
TAF
KAGS 251141Z 2512/2612 00000KT P6SM SKC
     FM251600 30005KT P6SM SKC
     FM260000 VRB02KT P6SM SKC=

Latest METAR

505
SAUS70 KWBC 251158
MTRAGS
METAR KAGS 251153Z 00000KT 10SM CLR 04/03 A3004 RMK AO2 SLP173 T00440033
10067 20033 53012


USA.gov is the U.S. government's official web portal to all federal, state and local government web resources and services.